Time;durP1;ratioP1;P1;durP2;ratioP2;P2;SDS_P1;SDS_P2;PMS_P1;PMS_P2;Temp;Humidity;BMP_temperature;BMP_pressure;BME280_temperature;BME280_humidity;BME280_pressure;Samples;Min_cycle;Max_cycle;Signal;HPM_P1;HPM_P2
2022/12/14 00:00:32;;;;;;;32.78;15.15;;;;;;;-1.94;94.02;91555.72;5030755;28;20042;-76
2022/12/14 00:02:58;;;;;;;41.13;15.60;;;;;;;-1.97;94.44;91558.75;5017186;28;20029;-76
2022/12/14 00:05:23;;;;;;;35.03;15.85;;;;;;;-1.99;94.53;91561.56;5033195;28;20049;-76
2022/12/14 00:07:49;;;;;;;37.65;16.17;;;;;;;-2.00;94.78;91544.63;5031700;28;20052;-76
2022/12/14 00:10:14;;;;;;;29.25;14.57;;;;;;;-1.99;94.60;91546.16;5014916;28;20037;-76
2022/12/14 00:12:40;;;;;;;33.85;15.00;;;;;;;-1.99;95.81;91545.38;5031504;28;20056;-76
2022/12/14 00:15:07;;;;;;;29.90;13.05;;;;;;;-2.02;95.82;91541.50;5030630;28;20042;-76
2022/12/14 00:17:33;;;;;;;29.48;12.68;;;;;;;-1.98;95.20;91554.63;5033096;28;20033;-76
2022/12/14 00:19:59;;;;;;;35.00;14.18;;;;;;;-1.99;94.68;91543.59;5030701;28;20467;-76
2022/12/14 00:22:24;;;;;;;33.97;14.73;;;;;;;-1.97;95.84;91549.28;5012528;28;20187;-77
2022/12/14 00:24:50;;;;;;;28.67;14.20;;;;;;;-1.97;95.60;91543.38;5026381;28;20033;-77
2022/12/14 00:27:15;;;;;;;35.00;15.05;;;;;;;-1.97;94.59;91535.69;5032327;28;20060;-76
2022/12/14 00:29:41;;;;;;;33.50;14.43;;;;;;;-1.98;95.03;91524.66;5031065;28;20084;-77
2022/12/14 00:32:06;;;;;;;26.40;13.55;;;;;;;-1.97;94.97;91520.28;5032445;28;20164;-76
2022/12/14 00:34:32;;;;;;;33.28;13.32;;;;;;;-1.96;94.11;91516.69;5010905;28;20380;-76
2022/12/14 00:36:58;;;;;;;31.23;13.18;;;;;;;-1.96;93.43;91522.63;5012734;28;20050;-76
2022/12/14 00:39:23;;;;;;;29.75;13.43;;;;;;;-1.94;93.40;91518.00;5019547;28;20341;-76
2022/12/14 00:41:49;;;;;;;30.27;13.38;;;;;;;-1.98;94.06;91524.66;5007628;28;20512;-76
2022/12/14 00:44:14;;;;;;;29.13;12.40;;;;;;;-1.95;93.85;91524.16;5020792;28;20072;-76
2022/12/14 00:46:40;;;;;;;23.40;11.38;;;;;;;-1.95;93.99;91526.75;5031149;28;20037;-76
2022/12/14 00:49:05;;;;;;;27.95;10.85;;;;;;;-1.95;93.83;91525.97;5040372;28;20063;-76
2022/12/14 00:51:31;;;;;;;21.00;9.63;;;;;;;-1.94;92.85;91523.16;5029002;28;20519;-76
2022/12/14 00:53:56;;;;;;;24.05;10.52;;;;;;;-1.93;92.84;91524.72;5020134;28;20033;-77
2022/12/14 00:56:22;;;;;;;29.10;11.45;;;;;;;-1.91;92.30;91515.00;5012531;28;20649;-76
2022/12/14 00:58:52;;;;;;;27.65;11.55;;;;;;;-1.91;91.70;91512.44;5012228;28;20042;-76
2022/12/14 01:01:19;;;;;;;25.25;11.88;;;;;;;-1.90;91.21;91515.78;5010930;28;20041;-76
2022/12/14 01:03:44;;;;;;;26.95;10.60;;;;;;;-1.94;90.28;91507.75;5012304;28;20499;-77
2022/12/14 01:06:19;;;;;;;22.13;9.52;;;;;;;-1.92;90.46;91505.75;5012223;28;20041;-76
2022/12/14 01:08:46;;;;;;;25.95;11.20;;;;;;;-1.96;89.96;91501.31;5027127;28;20091;-77
2022/12/14 01:11:12;;;;;;;24.60;11.10;;;;;;;-1.91;91.44;91506.53;5012473;28;20040;-77
2022/12/14 01:13:39;;;;;;;22.65;10.68;;;;;;;-1.91;90.69;91509.88;5019573;28;20037;-77
2022/12/14 01:16:10;;;;;;;29.33;12.23;;;;;;;-1.94;90.52;91505.19;5031618;28;20037;-76
2022/12/14 01:18:37;;;;;;;26.23;10.33;;;;;;;-1.92;89.54;91502.41;5030260;28;20141;-76
2022/12/14 01:21:18;;;;;;;22.50;10.80;;;;;;;-1.85;89.61;91508.16;5011803;28;20033;-76
2022/12/14 01:23:45;;;;;;;21.20;9.90;;;;;;;-1.77;90.48;91514.69;5018233;28;20642;-76
2022/12/14 01:26:13;;;;;;;28.20;11.52;;;;;;;-1.86;91.69;91510.97;5030374;28;20045;-76
2022/12/14 01:28:39;;;;;;;28.67;10.48;;;;;;;-1.89;92.54;91515.53;5010401;28;20472;-76
2022/12/14 01:31:13;;;;;;;24.67;10.68;;;;;;;-1.95;92.37;91515.72;5010368;28;20084;-76
2022/12/14 01:33:38;;;;;;;23.48;10.25;;;;;;;-2.03;92.19;91506.59;5020943;28;20048;-76
2022/12/14 01:36:17;;;;;;;22.23;9.52;;;;;;;-1.96;90.60;91509.00;5030735;28;20037;-77
2022/12/14 01:38:43;;;;;;;22.70;8.90;;;;;;;-1.98;90.08;91506.69;5031225;28;20057;-76
2022/12/14 01:41:22;;;;;;;27.13;9.32;;;;;;;-2.00;90.18;91513.06;5031122;28;20037;-76
2022/12/14 01:43:54;;;;;;;21.42;10.57;;;;;;;-2.01;90.35;91514.84;5030818;28;20029;-76
2022/12/14 01:46:33;;;;;;;27.95;10.60;;;;;;;-2.01;91.46;91506.38;5030906;28;20062;-76
2022/12/14 01:49:06;;;;;;;23.20;9.95;;;;;;;-2.01;91.72;91512.28;5030801;28;20070;-76
2022/12/14 01:51:32;;;;;;;22.15;10.15;;;;;;;-2.01;91.54;91509.72;5030622;28;20047;-76
2022/12/14 01:54:01;;;;;;;22.38;9.52;;;;;;;-2.02;92.42;91508.16;5025329;28;20475;-76
2022/12/14 01:56:29;;;;;;;28.60;10.20;;;;;;;-2.03;92.03;91500.69;5020477;28;20124;-76
2022/12/14 01:59:00;;;;;;;20.83;9.48;;;;;;;-2.00;92.10;91503.59;5030476;28;20037;-76
2022/12/14 02:01:26;;;;;;;22.50;9.43;;;;;;;-1.99;91.38;91499.22;5030585;28;20055;-76
2022/12/14 02:03:52;;;;;;;21.25;9.50;;;;;;;-1.99;91.85;91489.72;5012448;28;20075;-76
2022/12/14 02:06:28;;;;;;;22.42;9.00;;;;;;;-2.00;91.49;91490.75;5013235;28;20025;-76
2022/12/14 02:08:55;;;;;;;21.33;9.48;;;;;;;-2.00;89.96;91485.63;5029651;28;20055;-76
2022/12/14 02:11:49;;;;;;;21.33;9.13;;;;;;;-2.02;90.57;91485.09;5029208;28;20087;-76
2022/12/14 02:14:15;;;;;;;22.50;9.00;;;;;;;-1.98;90.62;91500.75;5002646;28;20133;-76
2022/12/14 02:16:41;;;;;;;26.38;9.80;;;;;;;-2.00;91.35;91490.75;5010875;28;20030;-76
2022/12/14 02:19:06;;;;;;;18.92;9.10;;;;;;;-2.01;90.99;91491.75;5017327;28;20045;-76
2022/12/14 02:21:35;;;;;;;21.08;9.32;;;;;;;-2.02;91.85;91492.00;5021871;28;20380;-77
2022/12/14 02:24:19;;;;;;;22.33;9.50;;;;;;;-2.04;91.48;91479.41;5021414;28;20594;-77
2022/12/14 02:27:01;;;;;;;20.70;8.77;;;;;;;-2.02;91.51;91479.19;5030723;28;20072;-77
2022/12/14 02:29:49;;;;;;;20.13;8.60;;;;;;;-2.02;90.96;91482.50;5030320;28;20214;-77
2022/12/14 02:32:53;;;;;;;18.98;8.40;;;;;;;-2.04;90.22;91481.19;5030401;28;20489;-76
2022/12/14 02:35:22;;;;;;;18.70;8.23;;;;;;;-2.04;90.07;91476.84;5030071;28;20498;-76
2022/12/14 02:37:56;;;;;;;17.02;7.90;;;;;;;-2.07;89.93;91464.50;5030667;28;20104;-77
2022/12/14 02:40:30;;;;;;;21.27;8.43;;;;;;;-2.07;89.71;91459.38;5028807;28;20125;-76
2022/12/14 02:43:02;;;;;;;17.27;7.88;;;;;;;-2.13;89.77;91447.47;5028584;28;20494;-76
2022/12/14 02:45:42;;;;;;;18.70;8.15;;;;;;;-2.15;90.34;91436.66;5032614;28;20033;-77
2022/12/14 02:48:40;;;;;;;18.75;7.60;;;;;;;-2.13;89.43;91443.13;5034475;28;20033;-76
2022/12/14 02:51:23;;;;;;;20.92;7.93;;;;;;;-2.14;89.76;91439.00;4996610;28;20052;-77
2022/12/14 02:54:01;;;;;;;18.02;8.27;;;;;;;-2.16;89.87;91427.41;5013513;28;20049;-77
2022/12/14 02:56:35;;;;;;;21.67;8.57;;;;;;;-2.17;89.81;91416.38;5029642;28;20038;-76
2022/12/14 02:59:05;;;;;;;18.02;7.15;;;;;;;-2.37;90.18;91386.09;5015329;28;20398;-76
2022/12/14 03:01:33;;;;;;;17.85;6.45;;;;;;;-2.16;89.62;91404.34;5020476;28;20401;-77
2022/12/14 03:03:59;;;;;;;14.18;6.55;;;;;;;-2.08;86.33;91403.19;5022863;28;20422;-77
2022/12/14 03:06:25;;;;;;;19.17;6.88;;;;;;;-2.15;87.63;91411.03;5033968;28;20025;-76
2022/12/14 03:09:02;;;;;;;17.27;8.07;;;;;;;-2.24;88.11;91399.63;5032788;28;20064;-76
2022/12/14 03:11:45;;;;;;;16.95;7.00;;;;;;;-2.26;87.91;91396.50;5034120;28;20580;-76
2022/12/14 03:14:14;;;;;;;;;;;;;;;-2.31;88.70;91399.78;5033378;28;20044;-76
2022/12/14 03:16:43;;;;;;;15.25;6.43;;;;;;;-2.26;86.84;91391.38;5033945;28;20111;-76
2022/12/14 03:19:21;;;;;;;18.40;6.50;;;;;;;-2.32;87.22;91393.88;5033426;28;20386;-76
2022/12/14 03:21:58;;;;;;;13.57;6.65;;;;;;;-2.36;87.66;91390.22;5033561;28;20033;-76
2022/12/14 03:24:33;;;;;;;16.02;7.63;;;;;;;-2.40;86.86;91384.00;5025948;28;20045;-75
2022/12/14 03:27:05;;;;;;;15.65;6.35;;;;;;;-2.40;86.64;91384.00;5013954;28;20104;-77
2022/12/14 03:29:43;;;;;;;;;;;;;;;-2.43;86.65;91378.56;5014044;28;20148;-76
2022/12/14 03:32:13;;;;;;;13.43;6.10;;;;;;;-2.45;86.74;91370.38;5014156;28;19945;-77
2022/12/14 03:34:48;;;;;;;14.23;6.00;;;;;;;-2.43;86.67;91370.88;5018131;28;20029;-76
2022/12/14 03:37:38;;;;;;;22.65;5.95;;;;;;;-2.49;86.53;91357.22;5032795;28;20033;-76
2022/12/14 03:40:07;;;;;;;11.30;5.78;;;;;;;-2.52;86.84;91357.72;5030507;28;20040;-76
2022/12/14 03:43:03;;;;;;;12.70;5.75;;;;;;;-2.56;87.25;91365.06;5024789;28;20108;-76
2022/12/14 03:46:08;;;;;;;12.70;5.85;;;;;;;-2.63;87.04;91356.00;5031541;28;20034;-77
2022/12/14 03:48:48;;;;;;;14.40;5.35;;;;;;;-2.68;87.08;91359.22;5019379;28;20104;-76
2022/12/14 03:51:20;;;;;;;11.02;5.32;;;;;;;-2.73;87.29;91357.38;5013570;28;20034;-77
2022/12/14 03:54:29;;;;;;;13.52;5.88;;;;;;;-2.79;88.17;91352.41;5028931;28;20488;-77
2022/12/14 03:57:16;;;;;;;22.08;7.03;;;;;;;-2.82;89.55;91345.97;5044757;28;20041;-77
2022/12/14 03:59:58;;;;;;;21.95;8.80;;;;;;;-2.85;88.96;91356.69;5016680;28;20162;-77
2022/12/14 04:02:52;;;;;;;23.33;8.23;;;;;;;-2.90;88.95;91351.50;5032999;28;20168;-77
2022/12/14 04:05:29;;;;;;;16.63;7.97;;;;;;;-2.96;89.75;91347.28;5035084;28;20052;-76
2022/12/14 04:08:04;;;;;;;20.60;8.35;;;;;;;-3.01;90.00;91349.78;5033000;28;20041;-77
2022/12/14 04:19:15;;;;;;;16.65;8.10;;;;;;;-3.03;90.34;91336.41;5031016;28;20048;-76
2022/12/14 04:21:54;;;;;;;17.63;7.88;;;;;;;-3.11;90.45;91344.47;5019891;28;20036;-76
2022/12/14 04:27:32;;;;;;;21.10;8.25;;;;;;;-3.21;91.04;91327.94;5018509;28;20581;-77
2022/12/14 04:29:59;;;;;;;21.50;8.17;;;;;;;-3.21;91.72;91329.72;5013003;28;20034;-77
2022/12/14 04:32:34;;;;;;;21.73;8.38;;;;;;;-3.30;92.19;91326.00;4995163;28;20045;-77
2022/12/14 04:35:29;;;;;;;18.40;7.88;;;;;;;-3.38;91.40;91327.91;5012695;28;20034;-77
2022/12/14 04:38:03;;;;;;;18.35;8.43;;;;;;;-3.50;92.93;91309.28;5029058;28;20041;-76
2022/12/14 04:40:39;;;;;;;18.85;8.05;;;;;;;-3.53;92.92;91317.41;5032108;28;20040;-77
2022/12/14 04:43:10;;;;;;;18.83;8.00;;;;;;;-3.54;92.75;91317.63;5032455;28;20040;-77
2022/12/14 04:45:48;;;;;;;19.85;8.32;;;;;;;-3.58;92.57;91302.75;5032181;28;20037;-76
2022/12/14 04:48:26;;;;;;;18.33;7.57;;;;;;;-3.60;92.61;91304.75;5031499;28;20025;-77
2022/12/14 04:51:03;;;;;;;20.55;10.30;;;;;;;-3.61;92.89;91300.63;5031607;28;20087;-77
2022/12/14 04:53:32;;;;;;;22.60;11.75;;;;;;;-3.62;92.24;91304.22;5032147;28;20059;-77
2022/12/14 04:56:35;;;;;;;26.88;9.48;;;;;;;-3.65;92.32;91302.09;5030569;28;20491;-76
2022/12/14 04:59:01;;;;;;;17.35;8.80;;;;;;;-3.66;92.97;91304.91;5012450;28;20128;-76
2022/12/14 05:01:53;;;;;;;22.23;10.07;;;;;;;-3.68;93.39;91294.88;5011957;28;20546;-76
2022/12/14 05:04:30;;;;;;;18.42;7.93;;;;;;;-3.71;93.09;91294.59;5010850;28;20038;-76
2022/12/14 05:07:08;;;;;;;20.10;9.77;;;;;;;-3.71;93.86;91294.59;5017299;28;20517;-77
2022/12/14 05:09:51;;;;;;;19.95;9.90;;;;;;;-3.75;93.83;91299.38;5031285;28;20055;-76
2022/12/14 05:12:26;;;;;;;27.42;9.70;;;;;;;-3.77;95.38;91298.81;5029971;28;20045;-77
2022/12/14 05:15:04;;;;;;;18.02;9.50;;;;;;;-3.79;95.27;91293.16;5030474;28;20084;-76
2022/12/14 05:17:34;;;;;;;22.20;9.65;;;;;;;-3.84;95.55;91288.72;5029448;28;20115;-76
2022/12/14 05:20:00;;;;;;;17.25;8.35;;;;;;;-3.82;95.26;91278.28;5031038;28;20041;-76
2022/12/14 05:22:25;;;;;;;17.02;8.20;;;;;;;-3.79;95.37;91293.16;5029468;28;20080;-76
2022/12/14 05:24:51;;;;;;;15.35;7.68;;;;;;;-3.80;94.73;91287.28;5030255;28;20044;-77
2022/12/14 05:27:16;;;;;;;15.30;7.22;;;;;;;-3.79;95.06;91280.38;5020009;28;20046;-76
2022/12/14 05:29:42;;;;;;;12.90;5.80;;;;;;;-3.79;93.74;91270.91;5011418;28;20046;-76
2022/12/14 05:32:11;;;;;;;15.40;5.65;;;;;;;-3.85;93.02;91263.38;5011666;28;20037;-76
2022/12/14 05:34:37;;;;;;;12.25;5.65;;;;;;;-3.82;92.73;91268.03;5021393;28;20038;-76
2022/12/14 05:37:03;;;;;;;12.82;6.25;;;;;;;-3.82;92.99;91268.81;5029399;28;20029;-75
2022/12/14 05:39:28;;;;;;;13.75;5.88;;;;;;;-3.81;92.96;91274.69;5023357;28;20137;-76
2022/12/14 05:41:54;;;;;;;13.90;5.82;;;;;;;-3.85;92.82;91264.16;5021081;28;20049;-76
2022/12/14 05:44:20;;;;;;;10.57;5.22;;;;;;;-3.84;92.83;91273.38;5024529;28;20043;-76
2022/12/14 05:46:45;;;;;;;11.70;5.82;;;;;;;-3.81;92.92;91272.16;5026240;28;20057;-76
2022/12/14 05:49:11;;;;;;;12.48;5.88;;;;;;;-3.82;92.75;91261.16;5023766;28;20038;-76
2022/12/14 05:51:37;;;;;;;13.07;5.60;;;;;;;-3.80;92.89;91260.94;5021274;28;20033;-77
2022/12/14 05:54:04;;;;;;;10.57;5.45;;;;;;;-3.79;92.62;91267.56;5018852;28;20044;-76
2022/12/14 05:56:30;;;;;;;12.48;6.28;;;;;;;-3.79;92.26;91257.34;5042111;28;20422;-77
2022/12/14 05:58:56;;;;;;;14.90;6.65;;;;;;;-3.79;93.01;91250.44;5019485;28;20037;-77
2022/12/14 06:01:22;;;;;;;13.70;6.35;;;;;;;-3.75;93.07;91255.13;5030666;28;20041;-78
2022/12/14 06:03:50;;;;;;;14.30;6.05;;;;;;;-3.75;92.92;91261.00;5025057;28;20408;-77
2022/12/14 06:06:16;;;;;;;12.75;5.95;;;;;;;-3.76;92.37;91254.31;5019870;28;20064;-77
2022/12/14 06:08:44;;;;;;;13.55;5.38;;;;;;;-3.72;93.40;91264.88;5031125;28;20101;-76
2022/12/14 06:11:16;;;;;;;21.17;6.97;;;;;;;-3.74;92.16;91265.09;5028551;28;20037;-76
2022/12/14 06:13:42;;;;;;;14.75;7.10;;;;;;;-3.73;92.41;91260.78;5015530;28;20033;-77
2022/12/14 06:16:20;;;;;;;19.75;7.63;;;;;;;-3.73;93.01;91264.13;5023494;28;20496;-76
2022/12/14 06:18:51;;;;;;;11.00;5.78;;;;;;;-3.74;92.58;91267.66;5015698;28;20038;-78
2022/12/14 06:21:19;;;;;;;12.88;5.82;;;;;;;-3.75;92.22;91263.56;5028690;28;20033;-77
2022/12/14 06:23:45;;;;;;;10.52;4.53;;;;;;;-3.71;91.88;91269.78;5030123;28;20372;-77
2022/12/14 06:26:12;;;;;;;9.55;4.22;;;;;;;-3.69;91.37;91277.19;5029600;28;20073;-77
2022/12/14 06:28:38;;;;;;;10.52;4.07;;;;;;;-3.69;91.17;91277.19;5049106;28;20142;-78
2022/12/14 06:31:06;;;;;;;6.47;3.53;;;;;;;-3.71;90.72;91272.34;5034093;28;20051;-78
2022/12/14 06:33:35;;;;;;;9.35;4.15;;;;;;;-3.74;90.71;91272.78;5035376;28;20036;-77
2022/12/14 06:36:01;;;;;;;9.07;4.18;;;;;;;-3.71;90.63;91274.91;5050553;28;20048;-77
2022/12/14 06:38:28;;;;;;;7.53;3.85;;;;;;;-3.70;90.32;91276.44;5029946;28;20337;-77
2022/12/14 06:40:54;;;;;;;11.88;4.18;;;;;;;-3.67;89.77;91273.44;5047836;28;20087;-77
2022/12/14 06:43:19;;;;;;;18.27;7.65;;;;;;;-3.66;90.08;91276.75;5046398;28;20025;-77
2022/12/14 06:45:45;;;;;;;30.15;11.10;;;;;;;-3.64;90.08;91270.41;5044278;28;20055;-78
2022/12/14 06:48:11;;;;;;;35.45;12.63;;;;;;;-3.62;90.89;91267.63;5049587;28;20087;-78
2022/12/14 06:50:36;;;;;;;28.25;10.65;;;;;;;-3.61;91.33;91269.94;5050903;28;20967;-78
2022/12/14 06:53:02;;;;;;;21.38;8.48;;;;;;;-3.61;91.70;91266.63;5047154;28;20047;-77
2022/12/14 06:55:28;;;;;;;24.30;10.73;;;;;;;-3.61;93.69;91269.94;5047062;28;20036;-78
2022/12/14 06:57:54;;;;;;;34.50;14.93;;;;;;;-3.54;96.84;91282.59;5039309;28;20586;-78
2022/12/14 07:00:21;;;;;;;34.15;15.05;;;;;;;-3.52;100.00;91292.59;5044071;28;20025;-78
2022/12/14 07:02:48;;;;;;;45.03;18.38;;;;;;;-3.47;100.00;91295.25;5049415;28;20044;-77
2022/12/14 07:05:14;;;;;;;55.15;17.42;;;;;;;-3.48;100.00;91298.81;5051477;28;20390;-77
2022/12/14 07:07:40;;;;;;;40.08;17.25;;;;;;;-3.48;100.00;91298.81;5050030;28;20025;-77
2022/12/14 07:10:07;;;;;;;51.20;19.63;;;;;;;-3.50;100.00;91303.38;5033393;28;20037;-77
2022/12/14 07:12:33;;;;;;;39.47;18.23;;;;;;;-3.49;100.00;91302.38;5042429;28;20058;-77
2022/12/14 07:14:59;;;;;;;41.20;17.60;;;;;;;-3.48;100.00;91304.72;5047053;28;20044;-77
2022/12/14 07:17:25;;;;;;;42.53;17.83;;;;;;;-3.49;100.00;91307.47;5045546;28;20029;-78
2022/12/14 07:19:52;;;;;;;38.33;16.08;;;;;;;-3.50;100.00;91305.94;5041016;28;20049;-77
2022/12/14 07:22:18;;;;;;;34.90;15.25;;;;;;;-3.50;100.00;91316.19;5047163;28;20052;-77
2022/12/14 07:24:44;;;;;;;29.52;13.77;;;;;;;-3.50;100.00;91318.75;5048977;28;20048;-77
2022/12/14 07:27:10;;;;;;;25.83;11.10;;;;;;;-3.48;100.00;91312.38;5050954;28;20399;-78
2022/12/14 07:29:35;;;;;;;25.42;10.45;;;;;;;-3.43;100.00;91311.69;5050820;28;20041;-77
2022/12/14 07:32:01;;;;;;;19.33;9.25;;;;;;;-3.37;100.00;91306.44;5036492;28;20036;-78
2022/12/14 07:34:27;;;;;;;26.55;10.68;;;;;;;-3.29;100.00;91307.81;5054155;28;20136;-77
2022/12/14 07:36:53;;;;;;;28.08;11.88;;;;;;;-3.23;100.00;91295.91;5054234;28;20056;-78
2022/12/14 07:39:19;;;;;;;29.95;12.80;;;;;;;-3.14;100.00;91310.66;5049485;28;20021;-78
2022/12/14 07:41:47;;;;;;;33.88;15.38;;;;;;;-3.05;100.00;91302.59;5054168;28;20043;-78
2022/12/14 07:44:19;;;;;;;37.67;14.95;;;;;;;-3.00;100.00;91311.13;5049408;28;20029;-77
2022/12/14 07:46:45;;;;;;;39.70;17.48;;;;;;;-2.92;100.00;91312.53;5047685;28;20079;-78
2022/12/14 07:49:11;;;;;;;35.97;16.85;;;;;;;-2.93;100.00;91308.41;5016724;28;20083;-80
2022/12/14 07:51:40;;;;;;;36.63;16.40;;;;;;;-2.84;100.00;91312.13;5052839;28;20437;-77
2022/12/14 07:54:06;;;;;;;46.33;16.83;;;;;;;-2.85;100.00;91302.91;5053034;28;20380;-79
2022/12/14 07:56:35;;;;;;;42.17;16.90;;;;;;;-2.75;100.00;91309.94;5053789;28;20037;-80
2022/12/14 07:59:03;;;;;;;34.95;16.88;;;;;;;-2.77;100.00;91310.19;5047297;28;20048;-77
2022/12/14 08:01:33;;;;;;;38.47;17.17;;;;;;;-2.79;100.00;91319.09;5052791;28;20036;-77
2022/12/14 08:04:05;;;;;;;46.15;18.63;;;;;;;-2.81;100.00;91323.72;5052892;28;20478;-77
2022/12/14 08:06:32;;;;;;;41.80;18.83;;;;;;;-2.75;100.00;91327.88;5051901;28;20041;-78
2022/12/14 08:08:57;;;;;;;45.25;17.27;;;;;;;-2.68;100.00;91327.72;5052889;28;20417;-77
2022/12/14 08:11:24;;;;;;;40.58;18.75;;;;;;;-2.62;100.00;91314.75;5050710;28;20029;-77
2022/12/14 08:13:58;;;;;;;43.47;20.42;;;;;;;-2.53;100.00;91325.38;5042578;28;20414;-77
2022/12/14 08:16:25;;;;;;;40.42;18.13;;;;;;;-2.45;100.00;91322.44;5047237;28;20040;-76
2022/12/14 08:18:55;;;;;;;36.63;14.95;;;;;;;-2.37;100.00;91323.81;5050808;28;20032;-77
2022/12/14 08:21:21;;;;;;;37.10;16.75;;;;;;;-2.28;100.00;91332.66;5052671;28;20074;-77
2022/12/14 08:23:48;;;;;;;33.83;15.25;;;;;;;-2.18;100.00;91337.16;5045945;28;20048;-79
2022/12/14 08:26:14;;;;;;;32.13;13.52;;;;;;;-2.10;100.00;91336.72;5055131;28;20128;-79
2022/12/14 08:28:40;;;;;;;26.38;12.60;;;;;;;-2.01;100.00;91329.41;5047507;28;20041;-79
2022/12/14 08:31:08;;;;;;;28.50;12.20;;;;;;;-1.91;100.00;91348.25;5043701;28;20060;-79
2022/12/14 08:33:35;;;;;;;30.75;13.60;;;;;;;-1.78;100.00;91341.22;5056264;28;20029;-78
2022/12/14 08:36:10;;;;;;;28.17;13.50;;;;;;;-1.58;100.00;91349.16;5056209;28;20108;-78
2022/12/14 08:38:36;;;;;;;35.28;14.02;;;;;;;-1.47;100.00;91345.66;5048087;28;20101;-79
2022/12/14 08:41:03;;;;;;;43.90;15.68;;;;;;;-1.44;100.00;91346.22;5046478;28;20029;-78
2022/12/14 08:43:29;;;;;;;41.53;17.00;;;;;;;-1.36;100.00;91344.00;5054873;28;20037;-79
2022/12/14 08:45:55;;;;;;;29.48;14.23;;;;;;;-1.29;100.00;91348.94;5052860;28;20064;-80
2022/12/14 08:48:20;;;;;;;28.25;13.07;;;;;;;-1.19;100.00;91348.25;5054427;28;20049;-80
2022/12/14 08:50:46;;;;;;;29.65;12.52;;;;;;;-1.11;98.86;91348.59;5053885;28;20053;-79
2022/12/14 08:53:12;;;;;;;27.13;13.45;;;;;;;-1.15;99.53;91349.31;5048096;28;20573;-79
2022/12/14 08:55:37;;;;;;;35.65;14.43;;;;;;;-1.11;100.00;91350.41;5054567;28;20116;-80
2022/12/14 08:58:03;;;;;;;38.67;14.75;;;;;;;-1.19;100.00;91349.06;5049723;28;20471;-79
2022/12/14 09:00:28;;;;;;;29.70;14.25;;;;;;;-1.28;100.00;91366.69;5045503;28;20401;-79
2022/12/14 09:02:54;;;;;;;34.53;15.93;;;;;;;-1.30;100.00;91362.81;5066405;28;20037;-78
2022/12/14 09:05:20;;;;;;;36.92;15.57;;;;;;;-1.26;100.00;91359.50;5047632;28;20037;-79
2022/12/14 09:07:45;;;;;;;38.80;18.48;;;;;;;-1.17;100.00;91367.56;5054753;28;20414;-79
2022/12/14 09:10:11;;;;;;;33.83;16.17;;;;;;;-1.10;100.00;91377.66;5037432;28;20041;-79
2022/12/14 09:12:38;;;;;;;32.90;15.32;;;;;;;-0.98;100.00;91378.28;5026437;28;20063;-78
2022/12/14 09:15:04;;;;;;;33.85;15.15;;;;;;;-0.87;100.00;91371.44;5045968;28;20060;-79
2022/12/14 09:17:30;;;;;;;29.40;13.05;;;;;;;-0.73;97.77;91375.16;5046193;28;20398;-79
2022/12/14 09:19:56;;;;;;;23.38;11.25;;;;;;;-0.68;95.05;91375.19;5055874;28;20069;-79
2022/12/14 09:22:22;;;;;;;23.23;10.93;;;;;;;-0.64;93.21;91383.97;5054178;28;20056;-79
2022/12/14 09:24:49;;;;;;;30.85;13.10;;;;;;;-0.62;93.97;91376.00;5054102;28;20486;-79
2022/12/14 09:27:15;;;;;;;25.13;11.70;;;;;;;-0.47;98.20;91383.84;5054949;28;20064;-79
2022/12/14 09:29:41;;;;;;;29.98;13.95;;;;;;;-0.58;98.63;91386.59;5055657;28;20032;-79
2022/12/14 09:32:07;;;;;;;37.00;17.17;;;;;;;-0.80;100.00;91384.84;5042187;28;20033;-79
2022/12/14 09:34:32;;;;;;;35.53;16.75;;;;;;;-0.82;100.00;91389.47;5052101;28;20033;-80
2022/12/14 09:37:03;;;;;;;33.80;15.95;;;;;;;-0.89;100.00;91388.88;5051858;28;20041;-80
2022/12/14 09:39:30;;;;;;;56.45;19.90;;;;;;;-0.85;100.00;91380.44;5053977;28;20068;-77
2022/12/14 09:42:19;;;;;;;45.83;16.02;;;;;;;-0.76;99.79;91391.06;5060997;28;20068;-78
2022/12/14 09:45:01;;;;;;;24.83;9.85;;;;;;;-0.61;94.97;91397.34;5044279;28;20238;-79
2022/12/14 09:47:42;;;;;;;24.13;10.02;;;;;;;-0.49;94.30;91388.47;5057058;28;20064;-79
2022/12/14 09:50:17;;;;;;;62.80;20.77;;;;;;;-0.33;89.96;91391.94;5054543;28;20037;-79
2022/12/14 09:52:50;;;;;;;30.20;12.88;;;;;;;-0.19;87.46;91391.50;5053593;28;20037;-79
2022/12/14 09:55:31;;;;;;;27.08;10.27;;;;;;;-0.02;87.11;91381.84;5035928;28;20025;-79
2022/12/14 09:58:28;;;;;;;23.95;10.07;;;;;;;0.11;88.48;91391.72;5043269;28;20433;-79
2022/12/14 10:01:23;;;;;;;19.67;9.90;;;;;;;0.53;91.18;91395.25;5044367;28;20040;-78
2022/12/14 10:04:06;;;;;;;35.42;15.82;;;;;;;0.24;92.74;91394.84;5050978;28;20036;-78
2022/12/14 10:06:35;;;;;;;33.03;15.88;;;;;;;0.09;94.10;91398.91;5047448;28;20029;-78
2022/12/14 10:09:16;;;;;;;32.55;16.10;;;;;;;0.02;94.99;91390.59;5051409;28;20045;-78
2022/12/14 10:12:06;;;;;;;31.02;14.30;;;;;;;0.06;93.93;91389.09;5049129;28;20045;-79
2022/12/14 10:14:53;;;;;;;29.83;13.27;;;;;;;0.06;93.45;91383.94;5052837;28;20083;-79
2022/12/14 10:17:37;;;;;;;33.53;14.15;;;;;;;-0.01;93.96;91381.59;5052804;28;20032;-79
2022/12/14 10:20:35;;;;;;;35.40;15.05;;;;;;;-0.02;94.98;91376.69;5053080;28;20075;-79
2022/12/14 10:23:02;;;;;;;33.25;14.15;;;;;;;-0.04;95.14;91360.75;5042972;28;20045;-79
2022/12/14 10:25:31;;;;;;;26.45;12.73;;;;;;;-0.02;91.30;91359.47;5038740;28;20486;-78
2022/12/14 10:28:02;;;;;;;35.10;15.00;;;;;;;0.06;90.45;91363.34;5046686;28;20045;-79
2022/12/14 10:30:29;;;;;;;25.52;10.57;;;;;;;0.14;88.15;91352.59;5053266;28;20106;-78
2022/12/14 10:33:15;;;;;;;19.42;9.80;;;;;;;0.33;90.45;91345.19;5053631;28;20025;-78
2022/12/14 10:36:04;;;;;;;27.83;13.15;;;;;;;0.24;90.49;91327.94;5053785;28;20398;-78
2022/12/14 10:38:40;;;;;;;33.08;13.55;;;;;;;0.48;90.34;91344.50;5052660;28;20051;-78
2022/12/14 10:41:12;;;;;;;32.35;13.75;;;;;;;0.57;88.88;91339.63;5053354;28;20029;-78
2022/12/14 10:43:58;;;;;;;35.25;15.52;;;;;;;0.53;89.59;91341.94;5054004;28;20055;-78
2022/12/14 10:46:33;;;;;;;32.38;13.80;;;;;;;0.56;89.37;91326.00;5051468;28;20049;-78
2022/12/14 10:49:12;;;;;;;29.33;14.65;;;;;;;0.53;89.79;91331.63;5053041;28;20105;-78
2022/12/14 10:51:43;;;;;;;32.30;13.00;;;;;;;0.56;88.26;91325.19;5054052;28;20037;-78
2022/12/14 10:54:24;;;;;;;33.28;14.63;;;;;;;0.45;87.94;91324.41;5053649;28;20037;-78
2022/12/14 10:56:50;;;;;;;33.97;15.05;;;;;;;0.45;89.81;91326.19;5053912;28;20036;-78
2022/12/14 10:59:22;;;;;;;35.03;14.77;;;;;;;0.69;89.19;91329.09;5067048;28;20535;-78
2022/12/14 11:01:50;;;;;;;;;;;;;;;0.82;89.00;91320.91;5066336;28;20025;-79
2022/12/14 11:04:30;;;;;;;32.00;15.05;;;;;;;0.75;89.47;91320.38;5064135;28;19912;-78
2022/12/14 11:07:03;;;;;;;25.98;13.32;;;;;;;0.85;88.11;91320.38;5057636;28;20029;-78
2022/12/14 11:09:29;;;;;;;28.42;12.90;;;;;;;0.90;85.83;91317.84;5057262;28;20045;-79
2022/12/14 11:12:12;;;;;;;34.53;13.70;;;;;;;0.84;87.10;91311.13;5039009;28;20032;-78
2022/12/14 11:14:50;;;;;;;24.45;10.35;;;;;;;0.93;85.76;91306.22;5056425;28;20607;-78
2022/12/14 11:17:40;;;;;;;22.27;8.65;;;;;;;1.09;81.68;91307.03;5056247;28;20111;-78
2022/12/14 11:20:24;;;;;;;29.20;10.40;;;;;;;1.35;84.03;91295.69;5057174;28;20051;-78
2022/12/14 11:22:54;;;;;;;36.75;16.58;;;;;;;1.04;85.49;91280.22;5056919;28;20060;-78
2022/12/14 11:25:28;;;;;;;32.17;13.63;;;;;;;0.79;87.79;91280.19;5055993;28;20041;-78
2022/12/14 11:27:54;;;;;;;34.25;16.85;;;;;;;0.64;88.75;91275.03;5056335;28;20088;-78
2022/12/14 11:30:19;;;;;;;28.65;12.95;;;;;;;0.62;88.42;91268.31;5057275;28;20498;-78
2022/12/14 11:32:47;;;;;;;37.17;17.48;;;;;;;0.45;88.30;91262.63;5055887;28;20053;-78
2022/12/14 11:35:17;;;;;;;26.48;12.57;;;;;;;0.52;88.96;91252.84;5057107;28;20029;-78
2022/12/14 11:37:46;;;;;;;32.25;16.20;;;;;;;0.80;86.94;91268.84;5056841;28;20398;-78
2022/12/14 11:40:35;;;;;;;38.10;16.52;;;;;;;0.71;89.44;91254.94;5056550;28;20041;-78
2022/12/14 11:43:03;;;;;;;38.53;16.65;;;;;;;0.90;88.30;91258.56;5057288;28;20060;-78
2022/12/14 11:45:31;;;;;;;34.55;16.92;;;;;;;1.07;87.67;91266.03;5057236;28;20028;-78
2022/12/14 11:48:12;;;;;;;29.15;14.52;;;;;;;1.35;85.12;91277.66;5057188;28;20457;-77
2022/12/14 11:50:38;;;;;;;31.77;14.32;;;;;;;1.56;83.82;91267.31;5037487;28;20034;-78
2022/12/14 11:53:11;;;;;;;29.08;14.02;;;;;;;1.72;83.32;91253.34;5037473;28;20036;-78